Terminal Aerodrome Forecast
Issued by NWS

Home | Current Version | Previous Version | Text Only | Print | Product List | Glossary On
Versions: 1 2 3 4 5 6 7 8 9 10 11 12 13 14 15 16
000
FTUS44 KLZK 270951 AAA
TAFHOT
TAF AMD
KHOT 270951Z 2710/2806 09004KT P6SM FEW250
     FM271100 00000KT P6SM VCSH SCT100 SCT250
     FM271500 11003KT P6SM SCT250
     FM271800 13005KT P6SM SCT050=

USA.gov is the U.S. government's official web portal to all federal, state and local government web resources and services.